Terminal Aerodrome Forecast
Issued by NWS Bismarck, ND

Home | Current Version | Previous Version | Text Only | Print | Product List | Glossary On
Versions: 1 2 3 4 5 6 7 8 9 10 11 12 13 14 15 16 17 18
633
FTUS43 KBIS 251728
TAFISN
TAF
KISN 251728Z 2518/2618 18005KT P6SM SCT025 BKN040
      TEMPO 2518/2522 BKN025
     FM260800 00000KT P6SM FEW030 SCT045
     FM261400 VRB03KT P6SM FEW030 SCT050=

USA.gov is the U.S. government's official web portal to all federal, state and local government web resources and services.